Time;durP1;ratioP1;P1;durP2;ratioP2;P2;SDS_P1;SDS_P2;PMS_P1;PMS_P2;Temp;Humidity;BMP_temperature;BMP_pressure;BME280_temperature;BME280_humidity;BME280_pressure;Samples;Min_cycle;Max_cycle;Signal;HPM_P1;HPM_P2
2021/04/25 00:00:14;;;;;;;27.77;16.02;;;205.50;2252.80;;;;;;4999652;28;20038;-84
2021/04/25 00:02:40;;;;;;;35.50;17.42;;;205.60;2252.80;;;;;;4999782;28;20368;-83
2021/04/25 00:05:08;;;;;;;34.30;21.23;;;205.50;2252.80;;;;;;5015715;28;20200;-83
2021/04/25 00:07:34;;;;;;;45.38;21.73;;;205.20;2252.80;;;;;;4999888;28;20032;-85
2021/04/25 00:10:00;;;;;;;34.45;18.83;;;205.40;2252.80;;;;;;4999454;28;20030;-84
2021/04/25 00:12:26;;;;;;;31.23;19.13;;;205.30;2252.80;;;;;;4999494;28;20026;-84
2021/04/25 00:14:52;;;;;;;35.35;18.88;;;205.40;2252.80;;;;;;4999978;28;20030;-84
2021/04/25 00:17:18;;;;;;;30.73;16.35;;;205.20;2252.80;;;;;;4999111;28;20022;-84
2021/04/25 00:19:43;;;;;;;24.77;15.68;;;205.20;2252.80;;;;;;4998962;28;20037;-86
2021/04/25 00:22:09;;;;;;;23.45;14.38;;;205.20;2252.80;;;;;;4998932;28;20467;-84
2021/04/25 00:24:35;;;;;;;32.90;17.27;;;205.20;2252.80;;;;;;4999065;28;20026;-84
2021/04/25 00:27:01;;;;;;;33.15;16.40;;;205.10;2252.80;;;;;;4998754;28;20529;-84
2021/04/25 00:29:27;;;;;;;30.35;16.15;;;205.20;2252.80;;;;;;5015862;28;20042;-84
2021/04/25 00:31:53;;;;;;;42.03;22.15;;;205.00;2252.80;;;;;;4998833;28;20535;-84
2021/04/25 00:34:18;;;;;;;29.00;15.98;;;205.20;2252.80;;;;;;5015194;28;20029;-85
2021/04/25 00:36:44;;;;;;;29.73;16.92;;;205.00;2252.80;;;;;;4998930;28;20117;-84
2021/04/25 00:39:10;;;;;;;31.25;17.88;;;205.10;2252.80;;;;;;4998602;28;20045;-84
2021/04/25 00:41:36;;;;;;;29.13;16.30;;;205.00;2252.80;;;;;;4998752;28;20026;-84
2021/04/25 00:44:03;;;;;;;33.20;19.30;;;205.10;2252.80;;;;;;4998573;28;20075;-84
2021/04/25 00:46:29;;;;;;;38.78;21.52;;;205.10;2252.80;;;;;;4999060;28;20546;-84
2021/04/25 00:48:54;;;;;;;32.28;19.23;;;205.20;2252.80;;;;;;4999164;28;20036;-84
2021/04/25 00:51:24;;;;;;;35.40;18.30;;;205.00;2252.80;;;;;;4998935;28;20058;-84
2021/04/25 00:53:50;;;;;;;31.40;17.20;;;205.20;2252.80;;;;;;5015613;28;20034;-84
2021/04/25 00:56:17;;;;;;;37.50;20.67;;;204.90;2252.80;;;;;;4998397;28;20121;-85
2021/04/25 00:58:43;;;;;;;38.67;19.30;;;205.00;2252.80;;;;;;4998492;28;20034;-85
2021/04/25 01:01:09;;;;;;;34.33;19.52;;;205.00;2252.80;;;;;;4998359;28;20049;-86
2021/04/25 01:03:35;;;;;;;30.38;17.15;;;204.90;2252.80;;;;;;4998618;28;20034;-85
2021/04/25 01:06:02;;;;;;;35.58;16.35;;;205.00;2252.80;;;;;;4997669;28;20518;-84
2021/04/25 01:08:28;;;;;;;30.42;15.98;;;204.90;2252.80;;;;;;4998031;28;20034;-84
2021/04/25 01:10:54;;;;;;;28.85;16.63;;;204.80;2252.80;;;;;;4998383;28;20028;-85
2021/04/25 01:13:20;;;;;;;29.50;17.52;;;204.80;2252.80;;;;;;4998083;28;20053;-85
2021/04/25 01:15:46;;;;;;;36.85;19.88;;;180.00;2252.80;;;;;;4997830;28;20399;-83
2021/04/25 01:18:12;;;;;;;33.55;16.58;;;179.90;2252.80;;;;;;4998015;28;20056;-85
2021/04/25 01:20:38;;;;;;;25.73;14.77;;;179.90;2252.80;;;;;;4997953;28;20030;-85
2021/04/25 01:23:04;;;;;;;22.70;13.38;;;179.90;2252.80;;;;;;4997797;28;20080;-86
2021/04/25 01:25:30;;;;;;;19.92;13.07;;;179.90;2252.80;;;;;;4998673;28;20030;-85
2021/04/25 01:27:56;;;;;;;25.77;15.43;;;179.90;2252.80;;;;;;4998116;28;20026;-86
2021/04/25 01:30:26;;;;;;;23.13;14.05;;;180.00;2252.80;;;;;;4997815;28;20029;-86
2021/04/25 01:32:53;;;;;;;23.15;14.77;;;179.90;2252.80;;;;;;4998132;28;20026;-85
2021/04/25 01:35:21;;;;;;;26.13;13.80;;;179.60;2252.80;;;;;;4997828;28;20029;-86
2021/04/25 01:37:49;;;;;;;25.92;14.35;;;179.80;2252.80;;;;;;4997901;28;20033;-85
2021/04/25 01:40:15;;;;;;;25.48;14.25;;;179.80;2252.80;;;;;;4997640;28;20038;-86
2021/04/25 01:42:41;;;;;;;24.33;14.02;;;179.60;2252.80;;;;;;4997072;28;20036;-83
2021/04/25 01:45:08;;;;;;;22.50;13.70;;;179.50;2252.80;;;;;;4997734;28;20112;-85
2021/04/25 01:47:34;;;;;;;23.88;13.77;;;179.50;2252.80;;;;;;5015331;28;20034;-85
2021/04/25 01:50:00;;;;;;;18.88;11.77;;;179.50;2252.80;;;;;;4997870;28;20045;-85
2021/04/25 01:52:26;;;;;;;21.05;11.90;;;179.40;2252.80;;;;;;5015386;28;20030;-85
2021/04/25 01:54:51;;;;;;;19.20;12.75;;;179.50;2252.80;;;;;;4998189;28;20403;-86
2021/04/25 01:57:17;;;;;;;16.60;11.45;;;179.40;2252.80;;;;;;4997869;28;20060;-84
2021/04/25 01:59:43;;;;;;;26.25;13.50;;;179.30;2252.80;;;;;;4997621;28;20494;-84
2021/04/25 02:02:09;;;;;;;23.52;13.52;;;154.50;2252.80;;;;;;4997253;28;20033;-85
2021/04/25 02:04:35;;;;;;;26.13;13.23;;;154.50;2252.80;;;;;;4997085;28;20026;-84
2021/04/25 02:07:01;;;;;;;19.95;12.38;;;154.30;2252.80;;;;;;5014535;28;20053;-84
2021/04/25 02:09:26;;;;;;;22.25;13.38;;;154.40;2252.80;;;;;;4997522;28;20124;-84
2021/04/25 02:11:52;;;;;;;24.92;13.15;;;154.30;2252.80;;;;;;4997117;28;20482;-84
2021/04/25 02:14:18;;;;;;;22.67;12.60;;;154.00;2252.80;;;;;;4997235;28;20030;-84
2021/04/25 02:16:44;;;;;;;26.30;13.48;;;154.10;2252.80;;;;;;5013560;28;20026;-84
2021/04/25 02:19:10;;;;;;;17.88;12.13;;;154.30;2252.80;;;;;;5000712;28;20048;-84
2021/04/25 02:21:35;;;;;;;27.13;14.25;;;154.30;2252.80;;;;;;5013710;28;20037;-84
2021/04/25 02:24:02;;;;;;;20.42;12.63;;;154.30;2252.80;;;;;;5012726;28;20520;-84
2021/04/25 02:26:27;;;;;;;22.90;12.90;;;179.30;2252.80;;;;;;5013360;28;20022;-84
2021/04/25 02:28:53;;;;;;;22.27;13.27;;;154.40;2252.80;;;;;;5013546;28;20041;-84
2021/04/25 02:31:19;;;;;;;21.73;13.40;;;154.00;2252.80;;;;;;5013486;28;20052;-84
2021/04/25 02:33:45;;;;;;;28.73;15.32;;;154.20;2252.80;;;;;;4997264;28;20026;-83
2021/04/25 02:36:11;;;;;;;26.75;15.35;;;153.60;2252.80;;;;;;5013359;28;20053;-85
2021/04/25 02:38:37;;;;;;;24.70;14.60;;;154.10;2252.80;;;;;;5013272;28;20459;-84
2021/04/25 02:41:03;;;;;;;25.05;16.38;;;154.00;2252.80;;;;;;5013452;28;20026;-84
2021/04/25 02:43:28;;;;;;;27.60;16.80;;;154.10;2252.80;;;;;;5013446;28;20037;-83
2021/04/25 02:45:54;;;;;;;31.58;20.83;;;154.00;2252.80;;;;;;5013156;28;20034;-84
2021/04/25 02:48:20;;;;;;;28.92;17.83;;;154.10;2252.80;;;;;;5012270;28;20486;-85
2021/04/25 02:50:46;;;;;;;32.78;19.13;;;153.90;2252.80;;;;;;4997108;28;20375;-84
2021/04/25 02:53:13;;;;;;;28.38;17.30;;;154.10;2252.80;;;;;;5012726;28;20033;-83
2021/04/25 02:55:39;;;;;;;26.13;15.68;;;154.00;2252.80;;;;;;5013093;28;20464;-84
2021/04/25 02:58:06;;;;;;;22.52;14.57;;;154.10;2252.80;;;;;;5013177;28;20030;-83
2021/04/25 03:00:32;;;;;;;26.88;15.65;;;153.90;2252.80;;;;;;5012886;28;20048;-83
2021/04/25 03:02:58;;;;;;;24.50;15.88;;;153.90;2252.80;;;;;;5013146;28;20049;-84
2021/04/25 03:05:25;;;;;;;25.27;14.18;;;153.90;2252.80;;;;;;5012953;28;20076;-85
2021/04/25 03:07:52;;;;;;;24.05;13.75;;;154.00;2252.80;;;;;;5013105;28;20064;-85
2021/04/25 03:10:19;;;;;;;25.23;15.77;;;154.50;2252.80;;;;;;5013199;28;20471;-84
2021/04/25 03:12:46;;;;;;;22.10;13.10;;;153.90;2252.80;;;;;;5013601;28;20022;-84
2021/04/25 03:15:14;;;;;;;23.73;14.60;;;153.90;2252.80;;;;;;5014178;28;20022;-83
2021/04/25 03:17:40;;;;;;;27.20;15.35;;;153.90;2252.80;;;;;;5014305;28;20361;-85
2021/04/25 03:20:10;;;;;;;33.08;15.65;;;128.90;2252.80;;;;;;5016843;28;20060;-84
2021/04/25 03:22:37;;;;;;;26.23;17.30;;;153.70;2252.80;;;;;;5018142;28;20022;-85
2021/04/25 03:25:05;;;;;;;31.30;14.85;;;153.80;2252.80;;;;;;5016810;28;20033;-84
2021/04/25 03:27:31;;;;;;;27.70;15.88;;;153.70;2252.80;;;;;;5016417;28;20037;-84
2021/04/25 03:29:57;;;;;;;25.00;15.38;;;153.70;2252.80;;;;;;5016523;28;20379;-84
2021/04/25 03:32:23;;;;;;;30.73;17.80;;;153.70;2252.80;;;;;;5016659;28;20109;-84
2021/04/25 03:34:48;;;;;;;22.40;15.38;;;153.80;2252.80;;;;;;5016321;28;20045;-84
2021/04/25 03:37:14;;;;;;;29.90;16.08;;;153.80;2252.80;;;;;;5017395;28;20034;-84
2021/04/25 03:39:40;;;;;;;36.80;20.90;;;153.90;2252.80;;;;;;5016935;28;20061;-84
2021/04/25 03:42:06;;;;;;;32.85;17.38;;;153.90;2252.80;;;;;;5016545;28;20382;-84
2021/04/25 03:44:32;;;;;;;19.98;12.35;;;154.00;2252.80;;;;;;5017780;28;20026;-85
2021/04/25 03:46:58;;;;;;;20.40;13.10;;;153.90;2252.80;;;;;;5017684;28;20108;-85
2021/04/25 03:49:24;;;;;;;19.95;12.45;;;153.90;2252.80;;;;;;5016111;28;20414;-84
2021/04/25 03:51:52;;;;;;;21.30;12.85;;;154.10;2252.80;;;;;;5016538;28;20030;-84
2021/04/25 03:54:18;;;;;;;22.38;12.63;;;154.00;2252.80;;;;;;5016189;28;20030;-84
2021/04/25 03:56:45;;;;;;;24.25;12.30;;;154.00;2252.80;;;;;;5016277;28;20057;-85
2021/04/25 03:59:11;;;;;;;21.83;13.38;;;153.90;2252.80;;;;;;5017229;28;20038;-85
2021/04/25 04:01:36;;;;;;;20.52;12.90;;;153.90;2252.80;;;;;;5016679;28;20063;-84
2021/04/25 04:04:03;;;;;;;20.95;12.90;;;153.80;2252.80;;;;;;5016919;28;20029;-85
2021/04/25 04:06:30;;;;;;;21.33;12.20;;;154.00;2252.80;;;;;;5017130;28;20046;-85
2021/04/25 04:08:56;;;;;;;26.40;12.82;;;153.90;2252.80;;;;;;5016350;28;20030;-84
2021/04/25 04:11:22;;;;;;;21.55;13.05;;;153.70;2252.80;;;;;;5015693;28;20025;-85
2021/04/25 04:13:47;;;;;;;26.10;13.88;;;153.80;2252.80;;;;;;5015800;28;20109;-85
2021/04/25 04:16:16;;;;;;;27.25;15.02;;;153.90;2252.80;;;;;;5015827;28;20030;-84
2021/04/25 04:18:42;;;;;;;21.77;13.75;;;153.90;2252.80;;;;;;5015458;28;20439;-84
2021/04/25 04:21:08;;;;;;;20.38;13.13;;;153.80;2252.80;;;;;;5016734;28;20092;-84
2021/04/25 04:23:33;;;;;;;23.55;13.32;;;154.00;2252.80;;;;;;5015544;28;20391;-84
2021/04/25 04:25:59;;;;;;;18.55;12.15;;;154.10;2252.80;;;;;;5015612;28;20124;-85
2021/04/25 04:28:25;;;;;;;21.30;12.88;;;154.10;2252.80;;;;;;5015416;28;20031;-84
2021/04/25 04:30:51;;;;;;;19.52;12.60;;;154.10;2252.80;;;;;;5015875;28;20537;-84
2021/04/25 04:33:17;;;;;;;20.98;13.10;;;154.10;2252.80;;;;;;5016615;28;20411;-85
2021/04/25 04:35:42;;;;;;;19.10;11.82;;;154.10;2252.80;;;;;;5015406;28;20038;-85
2021/04/25 04:38:08;;;;;;;22.83;14.00;;;154.10;2252.80;;;;;;5014825;28;20032;-85
2021/04/25 04:40:34;;;;;;;22.63;13.75;;;154.10;2252.80;;;;;;5015207;28;20034;-85
2021/04/25 04:43:00;;;;;;;23.77;14.25;;;154.10;2252.80;;;;;;5015250;28;20117;-84
2021/04/25 04:45:26;;;;;;;22.80;13.70;;;154.00;2252.80;;;;;;5015272;28;20026;-85
2021/04/25 04:47:52;;;;;;;25.83;15.10;;;154.00;2252.80;;;;;;5015038;28;20463;-85
2021/04/25 04:50:18;;;;;;;23.42;13.23;;;179.20;2252.80;;;;;;5015166;28;20030;-85
2021/04/25 04:52:46;;;;;;;25.42;16.73;;;153.90;2252.80;;;;;;5015180;28;20375;-85
2021/04/25 04:55:13;;;;;;;22.50;14.35;;;153.90;2252.80;;;;;;5016092;28;20038;-86
2021/04/25 04:57:38;;;;;;;20.17;12.23;;;153.80;2252.80;;;;;;5015051;28;20037;-85
2021/04/25 05:00:06;;;;;;;24.80;13.57;;;153.80;2252.80;;;;;;5014779;28;20030;-85
2021/04/25 05:02:32;;;;;;;19.75;12.68;;;153.80;2252.80;;;;;;5014873;28;20026;-85
2021/04/25 05:04:57;;;;;;;29.23;14.32;;;153.90;2252.80;;;;;;5014803;28;20080;-85
2021/04/25 05:07:23;;;;;;;28.10;15.18;;;154.00;2252.80;;;;;;5016180;28;20496;-86
2021/04/25 05:09:50;;;;;;;30.23;15.40;;;154.00;2252.80;;;;;;5014794;28;20423;-85
2021/04/25 05:12:16;;;;;;;29.98;16.45;;;154.10;2252.80;;;;;;5014829;28;20036;-86
2021/04/25 05:14:42;;;;;;;23.48;16.15;;;154.20;2252.80;;;;;;5014747;28;20018;-84
2021/04/25 05:17:08;;;;;;;25.92;13.30;;;154.30;2252.80;;;;;;5014887;28;20080;-86
2021/04/25 05:19:33;;;;;;;24.15;14.77;;;154.40;2252.80;;;;;;5014436;28;20046;-85
2021/04/25 05:21:59;;;;;;;20.45;14.57;;;154.40;2252.80;;;;;;5014648;28;20026;-85
2021/04/25 05:24:25;;;;;;;21.40;13.00;;;179.20;2252.80;;;;;;5014502;28;20037;-85
2021/04/25 05:26:51;;;;;;;23.90;14.10;;;179.30;2252.80;;;;;;5014214;28;20482;-85
2021/04/25 05:29:17;;;;;;;29.50;14.80;;;179.40;2252.80;;;;;;5014563;28;20061;-84
2021/04/25 05:31:44;;;;;;;26.15;16.38;;;179.60;2252.80;;;;;;5014484;28;20379;-84
2021/04/25 05:34:10;;;;;;;27.50;15.02;;;179.50;2252.80;;;;;;5014206;28;20029;-84
2021/04/25 05:36:36;;;;;;;27.30;16.00;;;179.90;2252.80;;;;;;4997803;28;20379;-84
2021/04/25 05:39:04;;;;;;;28.30;16.17;;;179.60;2252.80;;;;;;5014804;28;20034;-84
2021/04/25 05:41:30;;;;;;;31.38;18.10;;;179.50;2252.80;;;;;;5012732;28;20022;-84
2021/04/25 05:43:56;;;;;;;23.65;15.35;;;179.50;2252.80;;;;;;5013908;28;20041;-85
2021/04/25 05:46:21;;;;;;;30.65;16.38;;;179.40;2252.80;;;;;;5014240;28;20084;-85
2021/04/25 05:48:49;;;;;;;32.17;17.20;;;179.60;2252.80;;;;;;5013724;28;20116;-84
2021/04/25 05:51:16;;;;;;;28.27;16.85;;;179.80;2252.80;;;;;;5013635;28;20518;-84
2021/04/25 05:53:42;;;;;;;27.25;16.98;;;179.80;2252.80;;;;;;5013477;28;20025;-84
2021/04/25 05:56:09;;;;;;;23.45;13.40;;;179.80;2252.80;;;;;;5013742;28;20030;-85
2021/04/25 05:58:35;;;;;;;22.33;14.43;;;180.00;2252.80;;;;;;5013846;28;20049;-84
2021/04/25 06:01:01;;;;;;;24.20;13.82;;;180.10;2252.80;;;;;;5013853;28;20053;-83
2021/04/25 06:03:30;;;;;;;28.67;15.88;;;204.90;2252.80;;;;;;5013493;28;20030;-85
2021/04/25 06:05:56;;;;;;;27.55;16.38;;;205.10;2252.80;;;;;;5013550;28;20049;-85
2021/04/25 06:08:22;;;;;;;27.13;15.32;;;205.00;2252.80;;;;;;5014850;28;20026;-84
2021/04/25 06:10:48;;;;;;;26.05;15.82;;;205.20;2252.80;;;;;;5013654;28;20381;-85
2021/04/25 06:13:14;;;;;;;28.00;15.63;;;205.40;2252.80;;;;;;5013809;28;20336;-83
2021/04/25 06:15:40;;;;;;;38.95;22.00;;;205.40;2252.80;;;;;;5013737;28;20029;-84
2021/04/25 06:18:06;;;;;;;33.20;19.27;;;205.60;2252.80;;;;;;5013495;28;20053;-84
2021/04/25 06:20:32;;;;;;;31.70;18.42;;;205.70;2252.80;;;;;;5027259;28;20064;-84
2021/04/25 06:22:58;;;;;;;28.73;17.35;;;230.40;2252.80;;;;;;5013684;28;20033;-84
2021/04/25 06:25:24;;;;;;;30.15;16.75;;;230.60;2252.80;;;;;;5013382;28;20026;-84
2021/04/25 06:27:50;;;;;;;25.65;14.80;;;230.60;2252.80;;;;;;5013478;28;20037;-83
2021/04/25 06:30:18;;;;;;;32.13;15.82;;;230.80;2252.80;;;;;;5012806;28;20398;-83
2021/04/25 06:32:45;;;;;;;23.45;15.65;;;231.00;2252.80;;;;;;5013382;28;20022;-84
2021/04/25 06:35:13;;;;;;;28.77;16.23;;;231.10;2252.80;;;;;;5013150;28;20052;-84
2021/04/25 06:37:40;;;;;;;21.08;14.20;;;231.30;2227.20;;;;;;5012912;28;20029;-83
2021/04/25 06:40:07;;;;;;;21.85;13.63;;;256.00;2227.20;;;;;;5013127;28;20040;-83
2021/04/25 06:42:34;;;;;;;22.50;13.63;;;256.20;2227.20;;;;;;5013004;28;20069;-81
2021/04/25 06:44:59;;;;;;;23.23;13.30;;;231.20;2227.20;;;;;;5013884;28;20069;-82
2021/04/25 06:47:25;;;;;;;25.83;13.93;;;256.30;2227.20;;;;;;5013265;28;20033;-82
2021/04/25 06:49:51;;;;;;;17.75;12.82;;;256.50;2201.60;;;;;;5005734;28;20038;-82
2021/04/25 06:52:17;;;;;;;17.58;11.90;;;256.70;2201.60;;;;;;4979256;28;20027;-83
2021/04/25 06:54:43;;;;;;;20.77;12.70;;;281.90;2227.20;;;;;;4996812;28;20065;-84
2021/04/25 06:57:09;;;;;;;21.08;12.13;;;256.80;2201.60;;;;;;4997237;28;20065;-83
2021/04/25 06:59:35;;;;;;;16.67;13.32;;;281.60;2252.80;;;;;;4998520;28;20066;-83
2021/04/25 07:02:00;;;;;;;19.38;12.25;;;281.70;2201.60;;;;;;4997299;28;20400;-83
2021/04/25 07:04:26;;;;;;;23.50;12.93;;;281.90;2176.00;;;;;;4997766;28;20744;-83
2021/04/25 07:06:52;;;;;;;18.83;11.63;;;282.10;2150.40;;;;;;4998825;28;20427;-83
2021/04/25 07:09:18;;;;;;;18.80;12.40;;;282.20;2073.60;;;;;;4997109;28;20026;-83
2021/04/25 07:11:44;;;;;;;25.15;12.27;;;282.20;2073.60;;;;;;4996810;28;20157;-83
2021/04/25 07:14:10;;;;;;;21.13;12.40;;;282.50;2048.00;;;;;;4997553;28;20033;-83
2021/04/25 07:16:36;;;;;;;21.98;10.90;;;307.20;2048.00;;;;;;4997097;28;20037;-82
2021/04/25 07:19:02;;;;;;;17.30;11.68;;;307.40;1945.60;;;;;;4997078;28;20038;-83
2021/04/25 07:21:28;;;;;;;25.17;14.35;;;307.40;1945.60;;;;;;4996954;28;20026;-83
2021/04/25 07:23:54;;;;;;;20.70;13.18;;;307.60;1920.00;;;;;;4980665;28;20078;-82
2021/04/25 07:26:19;;;;;;;20.02;11.13;;;307.70;1894.40;;;;;;4996669;28;20077;-83
2021/04/25 07:28:45;;;;;;;18.02;10.77;;;307.50;1817.60;;;;;;4997267;28;20097;-82
2021/04/25 07:31:12;;;;;;;20.08;12.82;;;307.70;1817.60;;;;;;4996436;28;20468;-82
2021/04/25 07:33:39;;;;;;;16.35;10.25;;;307.90;1817.60;;;;;;4996174;28;20022;-82
2021/04/25 07:36:08;;;;;;;21.20;10.85;;;307.90;1766.40;;;;;;4996439;28;20076;-82
2021/04/25 07:38:36;;;;;;;21.98;11.63;;;333.10;1792.00;;;;;;4996427;28;20065;-83
2021/04/25 07:41:03;;;;;;;19.48;10.48;;;333.10;1792.00;;;;;;4996031;28;20031;-80
2021/04/25 07:43:29;;;;;;;18.98;11.13;;;333.10;1740.80;;;;;;4996188;28;20022;-81
2021/04/25 07:45:54;;;;;;;22.52;14.02;;;333.10;1689.60;;;;;;4996805;28;20026;-81
2021/04/25 07:48:20;;;;;;;19.17;11.25;;;333.30;1689.60;;;;;;4997352;28;20034;-82
2021/04/25 07:50:47;;;;;;;20.67;11.57;;;333.50;1664.00;;;;;;4996078;28;20049;-81
2021/04/25 07:53:14;;;;;;;18.80;11.77;;;333.40;1664.00;;;;;;4998602;28;20379;-80
2021/04/25 07:55:40;;;;;;;21.95;12.45;;;333.60;1664.00;;;;;;5010324;28;20030;-79
2021/04/25 07:58:06;;;;;;;20.40;12.45;;;358.50;1664.00;;;;;;5011083;28;20061;-79
2021/04/25 08:00:32;;;;;;;19.80;12.60;;;358.50;1638.40;;;;;;5010801;28;20037;-79
2021/04/25 08:02:58;;;;;;;20.98;11.45;;;358.50;1664.00;;;;;;4995439;28;20113;-77
2021/04/25 08:05:23;;;;;;;18.65;9.90;;;358.50;1612.80;;;;;;5008551;28;20050;-75
2021/04/25 08:07:51;;;;;;;19.35;10.68;;;358.70;1612.80;;;;;;4992068;28;20099;-73
2021/04/25 08:10:17;;;;;;;18.35;11.65;;;358.50;1587.20;;;;;;4993099;28;20034;-76
2021/04/25 08:12:43;;;;;;;21.88;12.23;;;358.80;1587.20;;;;;;4992252;28;20384;-76
2021/04/25 08:15:10;;;;;;;24.52;14.48;;;358.80;1561.60;;;;;;4991956;28;20444;-74
2021/04/25 08:17:36;;;;;;;24.13;13.90;;;359.20;1587.20;;;;;;4975880;28;20038;-77
2021/04/25 08:20:04;;;;;;;25.67;14.30;;;384.10;1536.00;;;;;;4993940;28;20042;-75
2021/04/25 08:22:30;;;;;;;22.30;14.80;;;384.30;1510.40;;;;;;4996211;28;20037;-77
2021/04/25 08:24:55;;;;;;;25.42;14.07;;;384.70;1459.20;;;;;;4996103;28;20031;-79
2021/04/25 08:27:21;;;;;;;22.92;13.20;;;384.70;1459.20;;;;;;4996702;28;20022;-77
2021/04/25 08:29:47;;;;;;;22.23;12.85;;;384.90;1408.00;;;;;;5011474;28;20030;-79
2021/04/25 08:32:13;;;;;;;21.75;12.70;;;409.70;1459.20;;;;;;5011634;28;20415;-78
2021/04/25 08:34:39;;;;;;;18.67;12.25;;;409.70;1433.60;;;;;;5008859;28;20054;-77
2021/04/25 08:37:05;;;;;;;22.02;11.63;;;409.90;1459.20;;;;;;4994952;28;20104;-75
2021/04/25 08:39:30;;;;;;;17.23;11.82;;;410.20;1459.20;;;;;;5010068;28;20034;-76
2021/04/25 08:41:56;;;;;;;19.70;11.90;;;410.20;1459.20;;;;;;5010891;28;20033;-75
2021/04/25 08:44:23;;;;;;;23.15;13.55;;;410.20;1459.20;;;;;;4994792;28;20108;-77
2021/04/25 08:46:51;;;;;;;21.35;12.07;;;435.20;1433.60;;;;;;4996380;28;20030;-81
2021/04/25 08:49:18;;;;;;;25.42;12.73;;;435.20;1408.00;;;;;;4994124;28;20412;-77
2021/04/25 08:51:45;;;;;;;31.38;17.73;;;435.20;1382.40;;;;;;4994573;28;20027;-78
2021/04/25 08:54:15;;;;;;;23.80;13.05;;;410.30;1408.00;;;;;;4994046;28;20483;-77
2021/04/25 08:56:42;;;;;;;21.02;13.35;;;435.30;1408.00;;;;;;4995551;28;20451;-73
2021/04/25 08:59:08;;;;;;;24.20;13.32;;;435.50;1382.40;;;;;;5011344;28;20042;-74
2021/04/25 09:01:34;;;;;;;22.40;13.98;;;435.80;1382.40;;;;;;4992922;28;20387;-72
2021/04/25 09:04:00;;;;;;;20.52;13.15;;;435.90;1356.80;;;;;;4992499;28;20037;-77
2021/04/25 09:06:26;;;;;;;22.60;12.05;;;436.00;1356.80;;;;;;4989714;28;20086;-76
2021/04/25 09:08:57;;;;;;;16.40;10.65;;;436.10;1331.20;;;;;;4974148;28;20066;-76
2021/04/25 09:11:32;;;;;;;20.70;12.95;;;436.10;1305.60;;;;;;4974116;28;20480;-75
2021/04/25 09:14:21;;;;;;;22.95;12.73;;;460.80;1356.80;;;;;;4974804;28;20405;-78
2021/04/25 09:16:59;;;;;;;19.67;12.35;;;460.90;1305.60;;;;;;4991585;28;20034;-75
2021/04/25 09:19:46;;;;;;;22.15;14.52;;;460.80;1305.60;;;;;;5009476;28;20034;-74
2021/04/25 09:22:12;;;;;;;21.55;12.45;;;461.10;1305.60;;;;;;4992892;28;20030;-77
2021/04/25 09:24:38;;;;;;;21.05;13.02;;;461.40;1280.00;;;;;;4993952;28;20057;-75
2021/04/25 09:27:04;;;;;;;24.58;14.82;;;461.20;1254.40;;;;;;4995416;28;20031;-75
2021/04/25 14:02:26;;;;;;;8.63;3.90;;;640.30;844.80;;;;;;5067651;28;20385;-76
2021/04/25 14:04:52;;;;;;;12.48;4.97;;;640.50;844.80;;;;;;5049047;28;20056;-77
2021/04/25 14:07:18;;;;;;;13.02;7.18;;;640.70;844.80;;;;;;5048834;28;20419;-79
2021/04/25 14:09:43;;;;;;;6.32;4.78;;;665.60;844.80;;;;;;5048715;28;20028;-76
2021/04/25 14:12:10;;;;;;;16.83;6.80;;;665.60;844.80;;;;;;5049382;28;20033;-76
2021/04/25 14:14:35;;;;;;;12.00;6.50;;;665.70;844.80;;;;;;5050480;28;20064;-76
2021/04/25 14:17:02;;;;;;;6.25;4.15;;;665.70;844.80;;;;;;5048743;28;20025;-76
2021/04/25 14:19:28;;;;;;;10.00;4.18;;;665.70;844.80;;;;;;5047096;28;20520;-75
2021/04/25 14:21:54;;;;;;;9.00;4.47;;;665.90;844.80;;;;;;5050741;28;20025;-76
2021/04/25 14:24:20;;;;;;;10.07;5.15;;;665.70;844.80;;;;;;5049358;28;20025;-77
2021/04/25 14:26:50;;;;;;;10.27;4.90;;;665.70;819.20;;;;;;5050489;28;20381;-76
2021/04/25 14:29:16;;;;;;;12.05;4.90;;;665.90;870.40;;;;;;5065854;28;20021;-77
2021/04/25 14:31:42;;;;;;;13.10;5.22;;;666.20;844.80;;;;;;5066074;28;20029;-75
2021/04/25 14:34:09;;;;;;;10.77;5.47;;;665.70;844.80;;;;;;5049395;28;20048;-75
2021/04/25 14:36:35;;;;;;;12.35;6.95;;;666.30;844.80;;;;;;5050391;28;20026;-76
2021/04/25 14:39:03;;;;;;;8.38;5.50;;;666.30;844.80;;;;;;5066518;28;20115;-76
2021/04/25 14:41:31;;;;;;;15.88;13.23;;;665.80;844.80;;;;;;5065727;28;20063;-75
2021/04/25 14:43:58;;;;;;;8.75;6.00;;;666.00;844.80;;;;;;5048866;28;20083;-75
2021/04/25 14:46:24;;;;;;;9.70;4.70;;;666.20;844.80;;;;;;5065811;28;20074;-79
2021/04/25 14:48:50;;;;;;;7.20;4.78;;;665.90;844.80;;;;;;5065747;28;20023;-76
2021/04/25 14:51:16;;;;;;;9.88;4.80;;;665.90;844.80;;;;;;5049801;28;20021;-74
2021/04/25 14:53:42;;;;;;;8.65;4.82;;;665.60;844.80;;;;;;5065989;28;20022;-75
2021/04/25 14:56:09;;;;;;;10.48;4.35;;;665.70;870.40;;;;;;5065556;28;20024;-75
2021/04/25 14:58:35;;;;;;;8.98;5.43;;;640.90;793.60;;;;;;5049720;28;20018;-75
2021/04/25 15:01:01;;;;;;;10.43;5.32;;;665.60;844.80;;;;;;5065019;28;20136;-75
2021/04/25 15:03:27;;;;;;;8.18;4.50;;;665.70;844.80;;;;;;5050209;28;20104;-74
2021/04/25 15:05:53;;;;;;;8.20;5.88;;;665.60;819.20;;;;;;5065170;28;20021;-75
2021/04/25 15:08:18;;;;;;;7.43;4.60;;;665.60;819.20;;;;;;5050067;28;20504;-75
2021/04/25 15:10:44;;;;;;;9.25;5.03;;;640.60;819.20;;;;;;5064989;28;20029;-75
2021/04/25 15:13:10;;;;;;;8.23;5.00;;;640.70;844.80;;;;;;5039973;28;20018;-75
2021/04/25 15:15:36;;;;;;;8.68;4.70;;;640.70;819.20;;;;;;5036678;28;20077;-75
2021/04/25 15:18:05;;;;;;;11.20;6.50;;;640.60;819.20;;;;;;5036307;28;20028;-75
2021/04/25 15:20:31;;;;;;;12.75;7.78;;;640.40;844.80;;;;;;5051567;28;20029;-75
2021/04/25 15:22:57;;;;;;;8.63;5.72;;;640.90;819.20;;;;;;5036476;28;20464;-77
2021/04/25 15:25:24;;;;;;;7.95;5.68;;;640.90;870.40;;;;;;5051517;28;20021;-76
2021/04/25 15:27:50;;;;;;;11.50;7.00;;;640.60;819.20;;;;;;5051831;28;20024;-75
2021/04/25 15:30:19;;;;;;;11.00;8.00;;;640.70;819.20;;;;;;5035200;28;20055;-76
2021/04/25 15:32:46;;;;;;;11.73;7.65;;;640.50;819.20;;;;;;5051334;28;20021;-76
2021/04/25 15:35:13;;;;;;;13.57;5.63;;;640.40;844.80;;;;;;5051565;28;20053;-77
2021/04/25 15:37:39;;;;;;;13.55;9.73;;;640.40;844.80;;;;;;5041321;28;20055;-77
2021/04/25 15:40:08;;;;;;;12.95;8.60;;;640.40;844.80;;;;;;5033993;28;20030;-75
2021/04/25 15:42:35;;;;;;;11.02;7.70;;;640.20;870.40;;;;;;5034305;28;20346;-75
2021/04/25 15:45:01;;;;;;;11.60;6.32;;;640.20;870.40;;;;;;5034552;28;20026;-76
2021/04/25 15:47:27;;;;;;;13.25;7.68;;;640.30;870.40;;;;;;5050783;28;20022;-76
2021/04/25 15:49:53;;;;;;;8.50;5.25;;;640.20;844.80;;;;;;5032456;28;20056;-76
2021/04/25 15:52:19;;;;;;;9.20;5.82;;;640.00;844.80;;;;;;5035678;28;20029;-75
2021/04/25 15:54:49;;;;;;;17.98;12.98;;;615.00;844.80;;;;;;5032548;28;20476;-75
2021/04/25 15:57:16;;;;;;;23.92;14.93;;;614.60;844.80;;;;;;5035159;28;20580;-75
2021/04/25 15:59:42;;;;;;;16.25;11.82;;;589.60;844.80;;;;;;5034351;28;20055;-78
2021/04/25 16:02:09;;;;;;;13.63;9.48;;;589.30;819.20;;;;;;5033939;28;20045;-76
2021/04/25 16:04:36;;;;;;;14.23;9.75;;;589.20;793.60;;;;;;5046855;28;20029;-79
2021/04/25 16:07:02;;;;;;;14.15;10.23;;;588.80;819.20;;;;;;5034571;28;20368;-74
2021/04/25 16:09:28;;;;;;;13.73;10.10;;;564.00;793.60;;;;;;5034615;28;20048;-76
2021/04/25 16:11:54;;;;;;;18.70;12.93;;;563.70;819.20;;;;;;5033373;28;20025;-76
2021/04/25 16:14:20;;;;;;;37.75;26.23;;;563.60;819.20;;;;;;5035273;28;20021;-76
2021/04/25 16:16:46;;;;;;;38.55;26.63;;;563.40;819.20;;;;;;5034212;28;20049;-76
2021/04/25 16:19:12;;;;;;;49.60;35.15;;;563.30;844.80;;;;;;5032958;28;20068;-73
2021/04/25 16:21:38;;;;;;;35.65;25.85;;;563.20;870.40;;;;;;5035025;28;20029;-74
2021/04/25 16:24:05;;;;;;;30.67;21.73;;;538.50;844.80;;;;;;5032864;28;20100;-74
2021/04/25 16:26:32;;;;;;;22.65;13.48;;;538.50;844.80;;;;;;5034059;28;20377;-79
2021/04/25 16:28:58;;;;;;;14.90;11.93;;;538.40;844.80;;;;;;5035013;28;20053;-76
2021/04/25 16:31:24;;;;;;;14.40;11.23;;;564.10;896.00;;;;;;5033947;28;20022;-74